Time;durP1;ratioP1;P1;durP2;ratioP2;P2;SDS_P1;SDS_P2;PMS_P1;PMS_P2;Temp;Humidity;BMP_temperature;BMP_pressure;BME280_temperature;BME280_humidity;BME280_pressure;Samples;Min_cycle;Max_cycle;Signal;HPM_P1;HPM_P2
2022/05/04 00:00:11;;;;;;;11.00;7.70;;;15.90;59.10;;;;;;5088333;28;20448;-67
2022/05/04 00:02:38;;;;;;;13.00;7.97;;;15.80;59.20;;;;;;5089259;28;20492;-67
2022/05/04 00:05:06;;;;;;;7.30;6.50;;;15.80;59.30;;;;;;5089293;28;20441;-67
2022/05/04 00:07:33;;;;;;;10.20;8.00;;;15.70;59.30;;;;;;5088577;28;20456;-67
2022/05/04 00:09:59;;;;;;;10.20;6.70;;;15.60;59.30;;;;;;5088460;28;20444;-67
2022/05/04 00:12:28;;;;;;;8.57;7.77;;;15.60;59.40;;;;;;5088001;28;20479;-67
2022/05/04 00:14:54;;;;;;;10.07;7.60;;;15.50;59.90;;;;;;5087043;28;20445;-67
2022/05/04 00:17:21;;;;;;;10.50;7.63;;;15.50;59.50;;;;;;5088998;28;20448;-67
2022/05/04 00:19:48;;;;;;;9.10;6.53;;;15.50;60.50;;;;;;5088047;28;20455;-67
2022/05/04 00:22:19;;;;;;;9.83;8.07;;;15.40;59.80;;;;;;5088320;28;20488;-67
2022/05/04 00:24:46;;;;;;;12.97;7.70;;;15.40;60.00;;;;;;5088257;28;20444;-67
2022/05/04 00:27:15;;;;;;;8.13;6.50;;;15.40;60.40;;;;;;5088855;28;20440;-67
2022/05/04 00:29:43;;;;;;;8.37;7.40;;;15.30;60.40;;;;;;5087616;28;20483;-68
2022/05/04 00:32:11;;;;;;;11.03;7.00;;;15.30;60.70;;;;;;5087689;28;20493;-68
2022/05/04 00:34:38;;;;;;;8.17;6.80;;;15.20;60.80;;;;;;5088196;28;20445;-68
2022/05/04 00:37:05;;;;;;;11.27;7.20;;;15.20;60.90;;;;;;5087592;28;20445;-68
2022/05/04 00:39:33;;;;;;;8.60;7.00;;;15.20;61.80;;;;;;5087484;28;20445;-69
2022/05/04 00:42:11;;;;;;;10.33;7.20;;;15.20;60.90;;;;;;5086952;28;20484;-67
2022/05/04 00:44:38;;;;;;;10.63;6.90;;;15.20;60.90;;;;;;5086208;28;20523;-68
2022/05/04 00:47:08;;;;;;;8.17;7.10;;;15.10;60.50;;;;;;5087101;28;20436;-68
2022/05/04 00:49:35;;;;;;;12.57;6.37;;;15.00;60.50;;;;;;5087554;28;20441;-68
2022/05/04 00:52:02;;;;;;;8.23;6.83;;;15.00;60.50;;;;;;5093618;28;20994;-67
2022/05/04 00:54:30;;;;;;;7.53;6.57;;;15.00;60.60;;;;;;5107025;28;20448;-68
2022/05/04 00:56:57;;;;;;;11.70;6.20;;;15.00;60.90;;;;;;5106592;28;20448;-67
2022/05/04 00:59:23;;;;;;;10.20;6.90;;;14.90;61.00;;;;;;5106390;28;20450;-67
2022/05/04 01:01:50;;;;;;;7.83;6.93;;;14.90;61.10;;;;;;5106881;28;20512;-68
2022/05/04 01:04:19;;;;;;;9.23;6.43;;;14.80;61.20;;;;;;5107295;28;20448;-67
2022/05/04 01:06:46;;;;;;;8.50;6.17;;;14.80;61.30;;;;;;5107654;28;20436;-67
2022/05/04 01:09:14;;;;;;;12.87;6.63;;;14.80;61.50;;;;;;5106175;28;20444;-67
2022/05/04 01:11:40;;;;;;;8.43;6.30;;;14.80;61.60;;;;;;5106433;28;20463;-67
2022/05/04 01:14:09;;;;;;;9.37;7.83;;;14.70;61.70;;;;;;5105847;28;20464;-68
2022/05/04 01:16:38;;;;;;;10.47;6.90;;;14.70;61.80;;;;;;5106565;28;20451;-68
2022/05/04 01:19:06;;;;;;;7.13;6.43;;;14.70;62.00;;;;;;5105951;28;20448;-67
2022/05/04 01:21:34;;;;;;;9.90;6.07;;;14.60;62.10;;;;;;5105133;28;20566;-67
2022/05/04 01:24:03;;;;;;;7.87;6.53;;;14.60;62.20;;;;;;5105935;28;20828;-67
2022/05/04 01:26:30;;;;;;;7.77;6.53;;;14.50;62.30;;;;;;5105300;28;20444;-68
2022/05/04 01:28:57;;;;;;;9.33;6.30;;;14.50;62.50;;;;;;5105156;28;20446;-68
2022/05/04 01:31:25;;;;;;;11.43;7.40;;;14.50;62.60;;;;;;5104596;28;20463;-67
2022/05/04 01:33:51;;;;;;;8.17;6.50;;;14.40;62.60;;;;;;5104977;28;20462;-68
2022/05/04 01:36:18;;;;;;;9.90;6.23;;;14.40;62.80;;;;;;5105802;28;20459;-68
2022/05/04 01:38:45;;;;;;;9.53;6.97;;;14.40;62.60;;;;;;5105951;28;20448;-68
2022/05/04 01:43:54;;;;;;;12.33;6.60;;;14.40;62.80;;;;;;5106593;28;20469;-67
2022/05/04 01:46:21;;;;;;;6.80;6.10;;;14.40;62.90;;;;;;5105472;28;20444;-67
2022/05/04 01:48:48;;;;;;;10.17;7.00;;;14.30;62.80;;;;;;5105029;28;20444;-67
2022/05/04 01:51:14;;;;;;;8.13;6.53;;;14.30;62.90;;;;;;5113436;28;20459;-67
2022/05/04 01:53:42;;;;;;;11.87;7.30;;;14.20;63.00;;;;;;5105400;28;20450;-67
2022/05/04 01:56:09;;;;;;;11.43;6.70;;;14.20;63.20;;;;;;5105001;28;20428;-67
2022/05/04 01:58:37;;;;;;;8.83;6.37;;;14.20;63.40;;;;;;5105484;28;20446;-67
2022/05/04 02:01:04;;;;;;;14.33;7.33;;;14.10;63.50;;;;;;5104290;28;20509;-66
2022/05/04 02:03:31;;;;;;;8.90;6.37;;;14.10;63.60;;;;;;5105275;28;20455;-67
2022/05/04 02:05:57;;;;;;;8.27;6.33;;;14.00;63.80;;;;;;5104780;28;20452;-67
2022/05/04 02:08:25;;;;;;;10.40;6.47;;;14.00;64.00;;;;;;5103554;28;20447;-67
2022/05/04 02:10:51;;;;;;;8.73;5.80;;;13.90;64.00;;;;;;5104007;28;20931;-67
2022/05/04 02:13:18;;;;;;;8.87;7.00;;;13.90;64.20;;;;;;5104432;28;20446;-67
2022/05/04 02:15:46;;;;;;;9.87;6.63;;;13.90;64.50;;;;;;5103972;28;20935;-67
2022/05/04 02:18:13;;;;;;;7.83;7.00;;;13.90;64.50;;;;;;5104230;28;20448;-67
2022/05/04 02:20:39;;;;;;;7.57;6.87;;;13.90;64.60;;;;;;5103606;28;20444;-67
2022/05/04 02:23:07;;;;;;;10.70;7.10;;;13.80;64.70;;;;;;5103952;28;20509;-68
2022/05/04 02:25:33;;;;;;;9.07;6.90;;;13.80;64.80;;;;;;5103904;28;20454;-68
2022/05/04 02:28:00;;;;;;;11.80;7.53;;;13.80;64.90;;;;;;5103421;28;20451;-68
2022/05/04 02:30:27;;;;;;;8.13;6.97;;;13.70;65.00;;;;;;5103806;28;20444;-68
2022/05/04 02:32:55;;;;;;;11.90;7.10;;;13.70;65.20;;;;;;5103077;28;20982;-68
2022/05/04 02:38:07;;;;;;;12.07;6.30;;;13.60;65.60;;;;;;5103152;28;20419;-67
2022/05/04 02:40:34;;;;;;;8.47;6.53;;;13.60;65.90;;;;;;5103375;28;20508;-68
2022/05/04 02:43:04;;;;;;;14.50;6.30;;;13.50;66.00;;;;;;5102087;28;20484;-68
2022/05/04 02:45:31;;;;;;;9.03;6.00;;;13.50;66.30;;;;;;5101875;28;20455;-68
2022/05/04 02:47:59;;;;;;;17.50;6.73;;;13.50;66.60;;;;;;5100458;28;20454;-67
2022/05/04 02:50:25;;;;;;;14.43;7.47;;;13.40;66.80;;;;;;5102179;28;20523;-67
2022/05/04 02:52:52;;;;;;;8.00;7.20;;;13.40;66.90;;;;;;5101353;28;20468;-67
2022/05/04 02:55:19;;;;;;;9.23;6.83;;;13.40;66.90;;;;;;5101415;28;20452;-68
2022/05/04 02:57:46;;;;;;;9.90;7.30;;;13.40;67.30;;;;;;5102255;28;20444;-67
2022/05/04 03:00:14;;;;;;;8.73;6.60;;;13.40;67.50;;;;;;5102687;28;20447;-67
2022/05/04 03:02:41;;;;;;;11.20;7.80;;;13.40;67.50;;;;;;5102066;28;20479;-67
2022/05/04 03:05:12;;;;;;;10.97;7.10;;;13.30;67.50;;;;;;5102373;28;20448;-68
2022/05/04 03:07:39;;;;;;;8.67;6.57;;;13.40;67.40;;;;;;5102135;28;20816;-67
2022/05/04 03:10:07;;;;;;;10.83;6.67;;;13.30;67.60;;;;;;5101403;28;20447;-67
2022/05/04 03:12:34;;;;;;;9.80;7.00;;;13.20;67.40;;;;;;5100858;28;20460;-67
2022/05/04 03:15:01;;;;;;;10.30;6.50;;;13.20;67.50;;;;;;5101233;28;20440;-68
2022/05/04 03:17:28;;;;;;;10.17;6.97;;;13.20;67.60;;;;;;5100521;28;20451;-67
2022/05/04 03:19:55;;;;;;;11.23;7.07;;;13.20;67.60;;;;;;5100776;28;20444;-67
2022/05/04 03:22:23;;;;;;;9.60;6.53;;;13.20;67.80;;;;;;5104355;28;20486;-67
2022/05/04 03:24:50;;;;;;;8.90;7.23;;;13.20;67.80;;;;;;5106151;28;20439;-67
2022/05/04 03:27:17;;;;;;;10.00;7.70;;;13.10;67.90;;;;;;5105960;28;20451;-67
2022/05/04 03:29:44;;;;;;;9.63;7.37;;;13.20;68.30;;;;;;5105289;28;20444;-67
2022/05/04 03:32:11;;;;;;;14.27;7.67;;;13.10;68.10;;;;;;5113134;28;20466;-67
2022/05/04 03:34:38;;;;;;;9.30;6.80;;;13.10;68.10;;;;;;5117524;28;20444;-67
2022/05/04 03:37:06;;;;;;;11.63;7.87;;;13.00;68.40;;;;;;5109519;28;20448;-68
2022/05/04 03:39:34;;;;;;;12.73;7.30;;;13.00;68.50;;;;;;5106243;28;20830;-68
2022/05/04 03:42:01;;;;;;;10.40;7.37;;;13.00;68.70;;;;;;5105274;28;20484;-68
2022/05/04 03:44:28;;;;;;;8.83;6.87;;;12.90;68.70;;;;;;5104998;28;20459;-67
2022/05/04 03:46:55;;;;;;;12.97;7.40;;;12.90;68.70;;;;;;5105157;28;20454;-67
2022/05/04 03:49:23;;;;;;;13.73;7.50;;;12.90;68.80;;;;;;5105337;28;20902;-68
2022/05/04 03:51:50;;;;;;;13.93;7.17;;;12.90;69.00;;;;;;5097009;28;20484;-68
2022/05/04 03:54:17;;;;;;;7.23;6.37;;;12.90;69.20;;;;;;5084370;28;20498;-67
2022/05/04 03:56:45;;;;;;;15.10;7.70;;;12.80;69.20;;;;;;5084281;28;20455;-67
2022/05/04 03:59:12;;;;;;;11.43;7.73;;;12.80;69.30;;;;;;5084530;28;20453;-66
2022/05/04 04:01:39;;;;;;;15.00;8.07;;;12.80;69.40;;;;;;5084782;28;20476;-66
2022/05/04 04:04:06;;;;;;;11.43;7.63;;;12.80;69.70;;;;;;5084509;28;20547;-66
2022/05/04 04:06:33;;;;;;;14.80;8.57;;;12.70;69.70;;;;;;5084765;28;20810;-66
2022/05/04 04:09:00;;;;;;;9.10;7.40;;;12.70;69.90;;;;;;5084897;28;20448;-66
2022/05/04 04:11:27;;;;;;;13.87;7.97;;;12.70;70.10;;;;;;5085180;28;20536;-66
2022/05/04 04:13:55;;;;;;;12.67;7.47;;;12.70;70.10;;;;;;5085305;28;20490;-66
2022/05/04 04:16:22;;;;;;;11.63;6.93;;;12.60;70.10;;;;;;5085012;28;20479;-66
2022/05/04 04:18:49;;;;;;;15.23;7.80;;;12.60;70.50;;;;;;5084511;28;20468;-67
2022/05/04 04:24:00;;;;;;;10.60;7.27;;;12.60;71.20;;;;;;5083842;28;20560;-67
2022/05/04 04:26:27;;;;;;;12.63;7.57;;;12.60;71.20;;;;;;5083620;28;20449;-67
2022/05/04 04:28:55;;;;;;;10.77;7.70;;;12.60;71.00;;;;;;5084045;28;20449;-66
2022/05/04 04:31:22;;;;;;;11.37;7.33;;;12.50;70.90;;;;;;5083047;28;20487;-66
2022/05/04 04:33:49;;;;;;;11.20;7.50;;;12.50;71.00;;;;;;5083016;28;20451;-66
2022/05/04 04:36:16;;;;;;;10.00;7.80;;;12.50;71.10;;;;;;5083924;28;20449;-66
2022/05/04 04:38:43;;;;;;;12.83;7.37;;;12.50;71.40;;;;;;5083851;28;20452;-66
2022/05/04 04:41:09;;;;;;;11.97;8.40;;;12.50;71.40;;;;;;5083409;28;20479;-67
2022/05/04 04:43:36;;;;;;;13.30;7.40;;;12.50;71.50;;;;;;5081881;28;20484;-66
2022/05/04 04:46:04;;;;;;;9.37;7.40;;;12.40;71.30;;;;;;5076668;28;20456;-66
2022/05/04 04:48:31;;;;;;;10.80;7.90;;;12.30;71.60;;;;;;5075685;28;20510;-67
2022/05/04 04:50:58;;;;;;;11.50;7.67;;;12.30;72.10;;;;;;5075488;28;20476;-68
2022/05/04 04:53:25;;;;;;;14.80;7.23;;;12.30;72.40;;;;;;5075654;28;20854;-67
2022/05/04 04:55:51;;;;;;;12.90;7.00;;;12.20;72.40;;;;;;5075702;28;20448;-68
2022/05/04 04:58:18;;;;;;;12.30;7.63;;;12.30;72.70;;;;;;5075687;28;20578;-67
2022/05/04 05:00:45;;;;;;;15.37;8.70;;;12.30;72.80;;;;;;5075131;28;20448;-68
2022/05/04 05:03:13;;;;;;;14.93;7.90;;;12.30;72.70;;;;;;5075589;28;20476;-67
2022/05/04 05:05:41;;;;;;;12.87;8.50;;;12.30;72.70;;;;;;5075358;28;20453;-67
2022/05/04 05:08:09;;;;;;;13.10;8.80;;;12.30;73.10;;;;;;5075464;28;20484;-67
2022/05/04 05:10:36;;;;;;;13.30;8.53;;;12.30;73.20;;;;;;5075223;28;20452;-68
2022/05/04 05:13:03;;;;;;;14.03;8.00;;;12.30;73.40;;;;;;5075439;28;20864;-68
2022/05/04 05:18:16;;;;;;;13.23;7.83;;;12.30;73.20;;;;;;5075588;28;20396;-67
2022/05/04 05:20:42;;;;;;;11.20;7.93;;;12.30;73.20;;;;;;5074741;28;20939;-68
2022/05/04 05:23:09;;;;;;;9.00;6.77;;;12.30;73.50;;;;;;5075368;28;20477;-68
2022/05/04 05:25:36;;;;;;;13.33;7.63;;;12.30;73.50;;;;;;5075027;28;20452;-68
2022/05/04 05:28:03;;;;;;;9.67;7.73;;;12.30;73.80;;;;;;5074998;28;20429;-68
2022/05/04 05:30:30;;;;;;;13.30;7.10;;;12.30;74.00;;;;;;5074766;28;20990;-69
2022/05/04 05:32:57;;;;;;;14.20;7.90;;;12.40;74.20;;;;;;5074662;28;21003;-68
2022/05/04 05:35:25;;;;;;;12.50;7.20;;;12.40;74.40;;;;;;5074936;28;20449;-69
2022/05/04 05:37:52;;;;;;;12.33;7.67;;;12.50;74.70;;;;;;5074839;28;20445;-69
2022/05/04 05:40:19;;;;;;;26.17;10.43;;;12.60;74.70;;;;;;5074546;28;20952;-69
2022/05/04 05:42:45;;;;;;;13.67;8.60;;;12.70;74.50;;;;;;5074449;28;20484;-68
2022/05/04 05:45:12;;;;;;;13.00;7.20;;;12.70;74.20;;;;;;5073976;28;20498;-69
2022/05/04 05:47:39;;;;;;;18.03;9.10;;;12.80;74.20;;;;;;5074387;28;20444;-69
2022/05/04 05:50:08;;;;;;;11.47;8.50;;;12.90;74.30;;;;;;5074696;28;20476;-69
2022/05/04 05:52:36;;;;;;;12.40;8.70;;;12.90;73.70;;;;;;5074604;28;20476;-69
2022/05/04 05:55:03;;;;;;;11.47;8.27;;;13.00;73.30;;;;;;5075416;28;20425;-68
2022/05/04 05:57:30;;;;;;;14.30;8.50;;;12.90;72.40;;;;;;5074407;28;20483;-69
2022/05/04 05:59:56;;;;;;;14.80;8.50;;;12.80;72.10;;;;;;5074428;28;20448;-69
2022/05/04 06:02:28;;;;;;;20.30;8.20;;;12.80;72.40;;;;;;5074210;28;20476;-69
2022/05/04 06:04:54;;;;;;;16.13;9.40;;;12.80;73.00;;;;;;5074380;28;20440;-68
2022/05/04 06:07:21;;;;;;;21.23;9.93;;;12.70;73.10;;;;;;5074455;28;20445;-68
2022/05/04 06:09:49;;;;;;;20.33;9.40;;;12.90;74.20;;;;;;5074182;28;20444;-71
2022/05/04 06:12:16;;;;;;;14.30;9.60;;;13.00;73.70;;;;;;5073861;28;20825;-68
2022/05/04 06:14:43;;;;;;;12.97;9.17;;;13.10;73.20;;;;;;5073705;28;20818;-69
2022/05/04 06:17:10;;;;;;;14.73;8.90;;;13.20;74.10;;;;;;5073688;28;20947;-68
2022/05/04 06:19:36;;;;;;;16.83;10.37;;;13.20;71.60;;;;;;5074017;28;20513;-68
2022/05/04 06:22:04;;;;;;;15.30;9.50;;;13.30;72.60;;;;;;5074169;28;20469;-69
2022/05/04 06:24:31;;;;;;;20.07;10.37;;;13.30;71.60;;;;;;5073425;28;21010;-69
2022/05/04 06:26:59;;;;;;;16.13;10.13;;;13.40;72.00;;;;;;5077785;28;20449;-67
2022/05/04 06:34:06;;;;;;;16.47;10.80;;;13.40;71.70;;;;;;5080860;28;20452;-67
2022/05/04 06:34:57;;;;;;;18.30;11.27;;;13.60;72.10;;;;;;5080400;28;20463;-67
2022/05/04 06:37:24;;;;;;;14.30;9.53;;;13.60;71.50;;;;;;5080252;28;20455;-67
2022/05/04 06:39:51;;;;;;;16.00;11.40;;;13.60;70.80;;;;;;5080107;28;20901;-67
2022/05/04 06:42:19;;;;;;;17.70;11.40;;;13.60;70.70;;;;;;5079291;28;20472;-67
2022/05/04 06:44:46;;;;;;;15.50;10.60;;;13.60;71.40;;;;;;5079303;28;20488;-67
2022/05/04 06:47:13;;;;;;;18.50;10.43;;;13.70;71.30;;;;;;5079513;28;20936;-67
2022/05/04 06:49:40;;;;;;;15.80;10.50;;;13.70;70.80;;;;;;5079903;28;20445;-67
2022/05/04 06:52:08;;;;;;;17.00;12.00;;;13.90;71.60;;;;;;5080418;28;20489;-68
2022/05/04 06:54:34;;;;;;;21.30;11.23;;;14.10;71.40;;;;;;5082132;28;20496;-68
2022/05/04 06:57:01;;;;;;;13.97;10.60;;;14.20;70.40;;;;;;5080289;28;20452;-68
2022/05/04 06:59:30;;;;;;;15.00;10.60;;;14.40;70.60;;;;;;5081057;28;20951;-67
2022/05/04 07:01:57;;;;;;;21.53;10.60;;;14.60;70.10;;;;;;5080242;28;20469;-67
2022/05/04 07:04:23;;;;;;;12.90;9.53;;;14.80;69.20;;;;;;5080383;28;20483;-67
2022/05/04 07:06:50;;;;;;;14.17;8.93;;;14.90;67.90;;;;;;5081337;28;20448;-67
2022/05/04 07:09:18;;;;;;;16.93;10.83;;;15.00;67.30;;;;;;5079159;28;20448;-67
2022/05/04 07:11:44;;;;;;;14.23;10.33;;;15.10;67.80;;;;;;5080530;28;21002;-67
2022/05/04 07:14:12;;;;;;;13.77;10.00;;;15.30;67.60;;;;;;5080141;28;20491;-67
2022/05/04 07:16:41;;;;;;;18.90;10.70;;;15.40;66.00;;;;;;5081116;28;20455;-67
2022/05/04 07:19:07;;;;;;;16.63;10.90;;;15.50;65.30;;;;;;5081778;28;20453;-67
2022/05/04 07:21:34;;;;;;;18.00;9.83;;;15.60;64.70;;;;;;5081569;28;20475;-67
2022/05/04 07:24:01;;;;;;;15.40;10.23;;;15.60;64.40;;;;;;5081647;28;20480;-67
2022/05/04 07:26:28;;;;;;;17.07;11.30;;;15.80;65.20;;;;;;5081253;28;20490;-67
2022/05/04 07:28:54;;;;;;;19.13;9.87;;;15.90;63.20;;;;;;5088684;28;20439;-67
2022/05/04 07:31:21;;;;;;;26.83;11.47;;;16.00;63.00;;;;;;5080349;28;20590;-67
2022/05/04 07:33:50;;;;;;;14.13;11.17;;;16.40;63.60;;;;;;5089583;28;20449;-67
2022/05/04 07:36:16;;;;;;;14.13;10.20;;;16.60;60.30;;;;;;5090626;28;20448;-67
2022/05/04 07:38:43;;;;;;;13.27;10.00;;;16.70;59.40;;;;;;5084930;28;20456;-67
2022/05/04 07:43:54;;;;;;;21.50;12.10;;;16.90;59.50;;;;;;5081675;28;20609;-68
2022/05/04 07:46:21;;;;;;;14.10;11.00;;;17.00;59.00;;;;;;5080858;28;20451;-68
2022/05/04 07:48:49;;;;;;;17.93;10.47;;;17.10;59.40;;;;;;5080741;28;20455;-68
2022/05/04 07:51:16;;;;;;;16.50;10.40;;;17.30;59.60;;;;;;5080685;28;20505;-68
2022/05/04 07:53:43;;;;;;;16.63;11.60;;;17.50;59.50;;;;;;5080409;28;20441;-67
2022/05/04 07:56:10;;;;;;;21.00;11.77;;;17.70;58.50;;;;;;5081144;28;20441;-67
2022/05/04 07:58:37;;;;;;;14.30;10.50;;;17.90;57.40;;;;;;5080666;28;20453;-67
2022/05/04 08:06:33;;;;;;;17.40;11.43;;;18.10;56.00;;;;;;5079668;28;20456;-68
2022/05/04 08:09:00;;;;;;;13.70;10.37;;;18.00;56.00;;;;;;5083705;28;20464;-68
2022/05/04 08:11:27;;;;;;;15.30;11.03;;;18.10;56.80;;;;;;5083539;28;20464;-67
2022/05/04 08:13:53;;;;;;;14.40;9.93;;;18.20;56.80;;;;;;5083887;28;20498;-67
2022/05/04 08:16:20;;;;;;;19.53;10.47;;;18.40;56.50;;;;;;5083547;28;20527;-68
2022/05/04 08:18:48;;;;;;;18.43;11.27;;;18.60;56.20;;;;;;5083794;28;20448;-67
2022/05/04 08:21:15;;;;;;;14.13;9.67;;;18.80;54.40;;;;;;5083657;28;20456;-67
2022/05/04 08:23:42;;;;;;;13.07;10.60;;;19.00;54.30;;;;;;5082983;28;20488;-67
2022/05/04 08:26:12;;;;;;;16.37;11.30;;;19.10;54.10;;;;;;5083980;28;20453;-67
2022/05/04 08:28:39;;;;;;;14.03;9.70;;;19.30;52.90;;;;;;5082615;28;20509;-67
2022/05/04 08:31:06;;;;;;;16.57;10.70;;;19.40;53.60;;;;;;5083311;28;20460;-68
2022/05/04 08:33:35;;;;;;;14.70;10.83;;;19.60;52.80;;;;;;5083033;28;20463;-68
2022/05/04 08:36:03;;;;;;;15.77;9.43;;;19.60;51.40;;;;;;5082787;28;20453;-68
2022/05/04 08:38:30;;;;;;;13.33;9.40;;;19.60;51.40;;;;;;5083103;28;20455;-68
2022/05/04 08:40:57;;;;;;;14.70;10.50;;;19.70;51.50;;;;;;5083536;28;20467;-68
2022/05/04 08:43:25;;;;;;;15.67;11.43;;;19.90;51.10;;;;;;5082693;28;20495;-68
2022/05/04 08:45:53;;;;;;;17.77;11.57;;;20.00;51.30;;;;;;5083426;28;20517;-68
2022/05/04 08:48:21;;;;;;;15.63;10.30;;;20.20;51.60;;;;;;5083246;28;20804;-67
2022/05/04 08:50:50;;;;;;;13.80;11.20;;;20.40;50.10;;;;;;5082497;28;20440;-67
2022/05/04 08:53:18;;;;;;;16.47;12.00;;;20.30;50.50;;;;;;5081929;28;20452;-68
2022/05/04 08:55:45;;;;;;;13.80;10.63;;;20.20;50.10;;;;;;5082793;28;20985;-68
2022/05/04 08:58:12;;;;;;;16.17;10.07;;;20.20;49.60;;;;;;5082469;28;20460;-68
2022/05/04 09:00:39;;;;;;;10.80;9.33;;;20.30;49.90;;;;;;5082403;28;20853;-67
2022/05/04 09:03:07;;;;;;;12.43;11.10;;;20.50;50.50;;;;;;5083224;28;20447;-68
2022/05/04 09:05:40;;;;;;;16.60;11.20;;;20.60;49.10;;;;;;5082720;28;21017;-68
2022/05/04 09:08:09;;;;;;;13.70;10.63;;;20.60;48.90;;;;;;5082896;28;20429;-68
2022/05/04 09:10:43;;;;;;;13.50;10.87;;;20.60;49.10;;;;;;5081642;28;20460;-68
2022/05/04 09:13:11;;;;;;;12.23;10.87;;;20.50;48.20;;;;;;5083373;28;20433;-69
2022/05/04 09:15:40;;;;;;;14.60;12.03;;;20.40;48.90;;;;;;5083111;28;20452;-67
2022/05/04 09:18:09;;;;;;;18.00;11.13;;;20.30;49.00;;;;;;5085888;28;20448;-68
2022/05/04 09:20:55;;;;;;;18.67;10.67;;;20.20;48.40;;;;;;5082482;28;20482;-68
2022/05/04 09:23:25;;;;;;;16.90;11.60;;;19.90;49.00;;;;;;5082658;28;20437;-68
2022/05/04 09:25:55;;;;;;;13.50;9.60;;;19.80;50.00;;;;;;5082068;28;20494;-67
2022/05/04 09:28:24;;;;;;;17.10;11.73;;;19.80;50.10;;;;;;5084122;28;20445;-68
2022/05/04 09:30:54;;;;;;;14.43;11.40;;;20.00;50.90;;;;;;5089311;28;20452;-67
2022/05/04 09:33:22;;;;;;;18.00;11.53;;;20.10;50.40;;;;;;5084092;28;20459;-69
2022/05/04 09:35:50;;;;;;;17.20;11.37;;;20.30;49.60;;;;;;5083835;28;20449;-68
2022/05/04 09:46:39;;;;;;;15.33;11.90;;;21.60;48.40;;;;;;5083430;28;20405;-68
2022/05/04 09:49:13;;;;;;;17.67;12.00;;;21.90;46.30;;;;;;5083412;28;20461;-68
2022/05/04 09:51:41;;;;;;;12.40;11.20;;;22.10;45.70;;;;;;5087442;28;20475;-68
2022/05/04 09:54:20;;;;;;;13.80;11.40;;;22.10;44.00;;;;;;5102073;28;20458;-68
2022/05/04 09:56:50;;;;;;;18.60;12.30;;;22.10;44.60;;;;;;5103604;28;20443;-67
2022/05/04 09:59:18;;;;;;;18.07;11.60;;;22.30;45.40;;;;;;5102536;28;20443;-68
2022/05/04 10:01:45;;;;;;;13.93;10.60;;;22.60;46.00;;;;;;5101965;28;20459;-68
2022/05/04 10:04:12;;;;;;;15.33;10.80;;;22.80;44.90;;;;;;5101789;28;20483;-68
2022/05/04 10:06:41;;;;;;;17.47;12.37;;;23.10;44.30;;;;;;5103113;28;20957;-67
2022/05/04 10:09:08;;;;;;;16.17;10.03;;;23.50;43.40;;;;;;5099353;28;20490;-68
2022/05/04 10:11:36;;;;;;;17.37;9.63;;;23.90;42.00;;;;;;5094018;28;20823;-69
2022/05/04 10:14:08;;;;;;;15.23;12.10;;;24.50;42.00;;;;;;5094366;28;20461;-69
2022/05/04 10:16:41;;;;;;;17.70;12.87;;;25.10;40.00;;;;;;5094409;28;20428;-69
2022/05/04 10:19:14;;;;;;;14.13;11.80;;;25.60;38.40;;;;;;5094363;28;20459;-69
2022/05/04 10:21:44;;;;;;;15.20;12.50;;;25.70;37.70;;;;;;5093861;28;21040;-69
2022/05/04 10:24:11;;;;;;;16.37;11.47;;;25.70;37.20;;;;;;5094199;28;20460;-69
2022/05/04 10:26:39;;;;;;;11.47;9.53;;;25.90;37.70;;;;;;5093939;28;20931;-69
2022/05/04 10:32:32;;;;;;;13.80;10.97;;;26.80;36.40;;;;;;5093980;28;20513;-70
2022/05/04 10:35:14;;;;;;;18.63;11.43;;;27.60;34.90;;;;;;5094113;28;20460;-69
2022/05/04 10:37:55;;;;;;;16.40;9.43;;;28.10;33.50;;;;;;5094901;28;20459;-70
2022/05/04 10:40:25;;;;;;;9.73;8.33;;;28.60;32.00;;;;;;5094510;28;20479;-70
2022/05/04 10:42:56;;;;;;;12.30;9.83;;;29.30;32.00;;;;;;5094031;28;20476;-70
2022/05/04 10:45:29;;;;;;;17.07;11.60;;;30.00;30.70;;;;;;5093606;28;21013;-70
2022/05/04 10:48:13;;;;;;;12.03;10.73;;;30.70;29.00;;;;;;5093815;28;20449;-70
2022/05/04 10:50:51;;;;;;;15.83;12.77;;;31.00;27.50;;;;;;5093779;28;20431;-67
2022/05/04 10:53:22;;;;;;;13.23;11.80;;;31.20;27.10;;;;;;5093598;28;20938;-67
2022/05/04 10:55:57;;;;;;;12.63;10.73;;;31.40;27.10;;;;;;5093676;28;20455;-67
2022/05/04 10:58:34;;;;;;;10.37;8.80;;;31.60;26.20;;;;;;5093382;28;20902;-67
2022/05/04 11:01:13;;;;;;;10.43;9.27;;;32.00;25.70;;;;;;5093604;28;20455;-68
2022/05/04 11:03:56;;;;;;;13.90;10.17;;;32.50;25.50;;;;;;5093793;28;20431;-67
2022/05/04 11:06:27;;;;;;;13.40;12.13;;;33.10;25.00;;;;;;5093845;28;20424;-67
2022/05/04 11:08:56;;;;;;;11.90;10.80;;;33.40;23.90;;;;;;5093676;28;20431;-68
2022/05/04 11:11:24;;;;;;;12.60;9.77;;;33.60;24.00;;;;;;5093770;28;20482;-68
2022/05/04 11:13:52;;;;;;;11.23;9.87;;;33.70;23.60;;;;;;5093523;28;20795;-68
2022/05/04 11:16:22;;;;;;;16.20;12.00;;;33.70;24.00;;;;;;5093625;28;20460;-69
2022/05/04 11:18:49;;;;;;;13.53;12.23;;;33.20;23.90;;;;;;5093612;28;20500;-68
2022/05/04 11:21:17;;;;;;;12.40;8.20;;;33.10;25.00;;;;;;5093106;28;21004;-68
2022/05/04 11:23:48;;;;;;;13.83;10.03;;;33.20;24.70;;;;;;5093384;28;20447;-68
2022/05/04 11:26:21;;;;;;;12.60;8.93;;;33.80;24.60;;;;;;5093164;28;20423;-68
2022/05/04 11:28:48;;;;;;;11.57;10.40;;;34.40;23.70;;;;;;5093624;28;20450;-68
2022/05/04 11:31:15;;;;;;;13.87;11.10;;;35.10;22.00;;;;;;5093495;28;20518;-68
2022/05/04 11:33:45;;;;;;;11.20;10.00;;;35.20;20.80;;;;;;5093283;28;20465;-68
2022/05/04 11:36:12;;;;;;;10.20;8.70;;;35.10;21.00;;;;;;5093485;28;20435;-68
2022/05/04 11:38:39;;;;;;;9.73;8.73;;;35.20;21.40;;;;;;5093319;28;20443;-68
2022/05/04 11:41:08;;;;;;;9.33;8.00;;;35.40;21.50;;;;;;5092961;28;20842;-68
2022/05/04 11:43:36;;;;;;;8.53;7.67;;;35.50;19.90;;;;;;5101784;28;20475;-66
2022/05/04 11:46:06;;;;;;;9.47;8.47;;;35.20;20.30;;;;;;5106893;28;21063;-66
2022/05/04 11:48:34;;;;;;;9.80;8.80;;;35.20;20.30;;;;;;5113358;28;20436;-67
2022/05/04 11:51:03;;;;;;;9.00;8.10;;;35.40;19.80;;;;;;5112540;28;20470;-67
2022/05/04 11:53:30;;;;;;;10.50;7.80;;;35.60;19.70;;;;;;5105928;28;20450;-67
2022/05/04 11:55:58;;;;;;;9.93;7.80;;;35.50;19.50;;;;;;5105946;28;20439;-67
2022/05/04 11:58:27;;;;;;;8.83;6.90;;;35.40;19.20;;;;;;5104373;28;20946;-67
2022/05/04 12:00:54;;;;;;;11.43;7.00;;;35.70;19.90;;;;;;5104017;28;20463;-66
2022/05/04 12:03:21;;;;;;;9.50;7.63;;;36.10;20.00;;;;;;5104398;28;20808;-67
2022/05/04 12:05:49;;;;;;;7.33;6.63;;;36.60;18.00;;;;;;5104245;28;20536;-67
2022/05/04 12:08:19;;;;;;;9.90;7.73;;;36.90;18.50;;;;;;5104167;28;20430;-67
2022/05/04 12:10:46;;;;;;;12.20;6.70;;;36.90;17.00;;;;;;5104124;28;20208;-67
2022/05/04 12:13:15;;;;;;;6.53;4.87;;;36.90;17.90;;;;;;5103679;28;20201;-67
2022/05/04 12:15:43;;;;;;;8.97;8.17;;;37.00;18.30;;;;;;5103904;28;20427;-67
2022/05/04 12:18:11;;;;;;;8.60;6.40;;;37.50;17.20;;;;;;5103272;28;20213;-67
2022/05/04 12:20:38;;;;;;;7.93;6.43;;;37.40;16.60;;;;;;5103764;28;20197;-67
2022/05/04 12:23:05;;;;;;;9.07;6.87;;;37.40;16.90;;;;;;5102758;28;20680;-67
2022/05/04 12:25:34;;;;;;;7.10;6.50;;;37.60;16.80;;;;;;5104019;28;20471;-67
2022/05/04 12:28:01;;;;;;;10.40;7.67;;;37.80;16.70;;;;;;5105228;28;20215;-68
2022/05/04 12:33:13;;;;;;;9.10;6.70;;;38.00;16.20;;;;;;5105420;28;20204;-67
2022/05/04 12:35:42;;;;;;;8.90;7.03;;;38.10;16.20;;;;;;5105336;28;20572;-67
2022/05/04 12:38:10;;;;;;;9.30;7.50;;;38.30;16.10;;;;;;5106034;28;20197;-69
2022/05/04 12:40:38;;;;;;;8.80;7.90;;;38.50;15.90;;;;;;5105782;28;20185;-69
2022/05/04 12:43:07;;;;;;;9.33;8.43;;;38.30;15.60;;;;;;5105034;28;20212;-69
2022/05/04 12:45:35;;;;;;;8.23;7.43;;;37.80;16.00;;;;;;5102997;28;20559;-68
2022/05/04 12:48:06;;;;;;;9.57;7.77;;;37.10;16.90;;;;;;5103394;28;20454;-69
2022/05/04 12:50:33;;;;;;;8.53;7.20;;;36.80;17.60;;;;;;5104200;28;20190;-69
2022/05/04 12:53:00;;;;;;;9.13;7.47;;;36.60;16.80;;;;;;5085382;28;20496;-69
2022/05/04 12:58:10;;;;;;;6.83;6.07;;;37.40;16.70;;;;;;5082199;28;20281;-69
2022/05/04 13:00:37;;;;;;;7.20;6.50;;;37.80;16.70;;;;;;5082752;28;20206;-69
2022/05/04 13:03:07;;;;;;;7.55;5.43;;;38.30;15.90;;;;;;5084037;28;20205;-68
2022/05/04 13:05:33;;;;;;;9.35;8.48;;;38.90;16.50;;;;;;5083017;28;20244;-68
2022/05/04 13:08:00;;;;;;;5.68;5.00;;;39.30;14.90;;;;;;5085074;28;20206;-68
2022/05/04 13:10:27;;;;;;;7.70;6.88;;;39.50;15.50;;;;;;5085102;28;20201;-68
2022/05/04 13:12:53;;;;;;;7.55;6.47;;;40.00;15.00;;;;;;5084438;28;20615;-69
2022/05/04 13:15:21;;;;;;;9.10;6.93;;;40.00;14.70;;;;;;5085633;28;20197;-68
2022/05/04 13:17:48;;;;;;;7.90;7.20;;;39.60;14.60;;;;;;5085456;28;20205;-68